createdAt,value
2022-09-28T00:00:46.377Z,99604.72
2022-09-28T00:03:13.134Z,99609.91
2022-09-28T00:05:39.711Z,99607.41
2022-09-28T00:08:06.074Z,99609.25
2022-09-28T00:10:32.624Z,99606.75
2022-09-28T00:13:01.292Z,99612.00
2022-09-28T00:15:27.696Z,99601.72
2022-09-28T00:17:54.061Z,99594.81
2022-09-28T00:20:22.142Z,99595.94
2022-09-28T00:22:48.651Z,99605.53
2022-09-28T00:25:16.847Z,99606.47
2022-09-28T00:27:43.292Z,99609.16
2022-09-28T00:30:10.064Z,99604.06
2022-09-28T00:32:36.472Z,99605.72
2022-09-28T00:35:02.869Z,99605.84
2022-09-28T00:37:30.090Z,99600.81
2022-09-28T00:39:56.965Z,99602.59
2022-09-28T00:42:25.935Z,99599.25
2022-09-28T00:44:59.474Z,99599.16
2022-09-28T00:47:39.799Z,99598.22
2022-09-28T00:50:31.705Z,99587.94
2022-09-28T00:53:07.861Z,99587.31
2022-09-28T00:55:50.232Z,99590.81
2022-09-28T00:58:25.428Z,99586.66
2022-09-28T01:00:54.833Z,99584.91
2022-09-28T01:03:21.429Z,99585.84
2022-09-28T01:05:50.600Z,99586.88
2022-09-28T01:08:21.062Z,99580.94
2022-09-28T01:10:51.271Z,99579.91
2022-09-28T01:13:18.865Z,99584.34
2022-09-28T01:15:58.955Z,99583.25
2022-09-28T01:18:39.697Z,99580.56
2022-09-28T01:21:20.810Z,99570.22
2022-09-28T01:24:10.282Z,99574.00
2022-09-28T01:26:47.788Z,99574.06
2022-09-28T01:29:40.443Z,99568.16
2022-09-28T01:32:14.129Z,99567.69
2022-09-28T01:34:55.298Z,99574.34
2022-09-28T01:37:29.240Z,99573.34
2022-09-28T01:39:57.623Z,99570.13
2022-09-28T01:42:29.821Z,99574.34
2022-09-28T01:45:03.722Z,99573.44
2022-09-28T01:47:36.807Z,99576.88
2022-09-28T01:50:10.700Z,99578.72
2022-09-28T01:53:06.234Z,99573.44
2022-09-28T01:55:42.119Z,99573.53
2022-09-28T01:58:26.699Z,99573.53
2022-09-28T02:00:59.758Z,99573.16
2022-09-28T02:03:40.037Z,99567.16
2022-09-28T02:06:15.014Z,99565.56
2022-09-28T02:08:50.551Z,99568.34
2022-09-28T02:11:19.247Z,99568.25
2022-09-28T02:13:54.045Z,99566.56
2022-09-28T02:16:42.400Z,99567.31
2022-09-28T02:19:13.739Z,99566.56
2022-09-28T02:21:53.728Z,99572.69
2022-09-28T02:24:38.746Z,99571.88
2022-09-28T02:27:17.127Z,99574.47
2022-09-28T02:29:43.580Z,99569.38
2022-09-28T02:32:10.951Z,99568.69
2022-09-28T02:34:37.359Z,99570.47
2022-09-28T02:37:03.831Z,99575.56
2022-09-28T02:39:30.198Z,99566.94
2022-09-28T02:42:10.297Z,99574.72
2022-09-28T02:44:36.733Z,99585.34
2022-09-28T02:47:14.918Z,99580.09
2022-09-28T02:50:06.697Z,99582.66
2022-09-28T02:52:51.889Z,99581.09
2022-09-28T02:55:35.441Z,99587.09
2022-09-28T02:58:32.892Z,99585.25
2022-09-28T03:01:17.682Z,99589.63
2022-09-28T03:04:10.089Z,99586.09
2022-09-28T03:06:51.683Z,99588.75
2022-09-28T03:09:29.031Z,99584.72
2022-09-28T03:12:05.664Z,99593.31
2022-09-28T03:14:32.089Z,99590.06
2022-09-28T03:16:58.469Z,99589.22
2022-09-28T03:19:30.431Z,99587.47
2022-09-28T03:21:56.827Z,99588.47
2022-09-28T03:24:23.229Z,99593.59
2022-09-28T03:26:49.616Z,99591.91
2022-09-28T03:29:16.250Z,99598.84
2022-09-28T03:31:44.170Z,99598.84
2022-09-28T03:34:10.628Z,99604.94
2022-09-28T03:36:37.145Z,99606.78
2022-09-28T03:39:04.376Z,99609.28
2022-09-28T03:41:30.847Z,99602.44
2022-09-28T03:43:57.187Z,99599.00
2022-09-28T03:46:23.717Z,99599.19
2022-09-28T03:48:50.111Z,99593.06
2022-09-28T03:51:16.481Z,99593.19
2022-09-28T03:53:42.843Z,99598.38
2022-09-28T03:56:14.162Z,99593.06
2022-09-28T03:58:40.710Z,99588.19
2022-09-28T04:01:16.460Z,99591.50
2022-09-28T04:03:44.695Z,99577.81
2022-09-28T04:06:11.593Z,99587.34
2022-09-28T04:08:38.496Z,99586.53
2022-09-28T04:11:05.325Z,99584.09
2022-09-28T04:13:32.025Z,99592.81
2022-09-28T04:16:00.926Z,99590.28
2022-09-28T04:18:27.819Z,99591.97
2022-09-28T04:21:03.650Z,99598.81
2022-09-28T04:23:30.584Z,99599.00
2022-09-28T04:25:57.050Z,99599.06
2022-09-28T04:28:41.775Z,99599.06
2022-09-28T04:31:10.865Z,99592.41
2022-09-28T04:33:38.480Z,99599.41
2022-09-28T04:36:05.921Z,99594.31
2022-09-28T04:38:51.972Z,99597.09
2022-09-28T04:41:20.074Z,99603.19
2022-09-28T04:43:47.200Z,99601.53
2022-09-28T04:46:14.419Z,99595.81
2022-09-28T04:48:41.727Z,99602.69
2022-09-28T04:51:08.162Z,99602.88
2022-09-28T04:53:35.093Z,99599.63
2022-09-28T04:56:02.644Z,99603.16
2022-09-28T04:58:29.998Z,99598.88
2022-09-28T05:01:02.433Z,99603.22
2022-09-28T05:03:29.240Z,99603.31
2022-09-28T05:05:55.733Z,99603.56
2022-09-28T05:08:22.404Z,99604.59
2022-09-28T05:10:49.142Z,99608.06
2022-09-28T05:13:15.579Z,99610.66
2022-09-28T05:15:42.800Z,99608.19
2022-09-28T05:18:09.229Z,99603.16
2022-09-28T05:20:41.070Z,99601.59
2022-09-28T05:23:12.278Z,99606.75
2022-09-28T05:25:42.192Z,99611.00
2022-09-28T05:28:08.735Z,99614.44
2022-09-28T05:30:35.712Z,99613.59
2022-09-28T05:33:03.324Z,99613.59
2022-09-28T05:35:29.971Z,99611.84
2022-09-28T05:37:57.313Z,99615.28
2022-09-28T05:40:23.896Z,99616.94
2022-09-28T05:42:50.340Z,99621.19
2022-09-28T05:45:16.897Z,99616.94
2022-09-28T05:47:45.979Z,99619.44
2022-09-28T05:50:15.840Z,99621.94
2022-09-28T05:52:43.414Z,99622.28
2022-09-28T05:55:10.252Z,99624.78
2022-09-28T05:57:36.759Z,99623.03
2022-09-28T06:00:08.984Z,99626.19
2022-09-28T06:02:35.626Z,99633.88
2022-09-28T06:05:02.013Z,99626.38
2022-09-28T06:07:28.401Z,99622.84
2022-09-28T06:09:54.839Z,99623.59
2022-09-28T06:12:24.248Z,99626.03
2022-09-28T06:14:50.596Z,99625.84
2022-09-28T06:17:16.994Z,99625.97
2022-09-28T06:19:44.107Z,99631.19
2022-09-28T06:22:10.497Z,99633.59
2022-09-28T06:24:36.815Z,99634.19
2022-09-28T06:27:03.276Z,99626.25
2022-09-28T06:29:29.873Z,99627.75
2022-09-28T06:31:56.248Z,99633.50
2022-09-28T06:34:24.625Z,99637.56
2022-09-28T06:36:51.259Z,99634.63
2022-09-28T06:39:17.894Z,99630.13
2022-09-28T06:41:44.296Z,99633.28
2022-09-28T06:44:10.758Z,99639.88
2022-09-28T06:46:39.287Z,99645.53
2022-09-28T06:49:09.137Z,99645.19
2022-09-28T06:51:36.618Z,99642.97
2022-09-28T06:54:03.591Z,99640.84
2022-09-28T06:56:32.925Z,99648.28
2022-09-28T06:58:59.831Z,99653.00
2022-09-28T07:01:26.262Z,99652.47
2022-09-28T07:03:55.635Z,99655.44
2022-09-28T07:06:24.194Z,99653.31
2022-09-28T07:09:05.098Z,99651.09
2022-09-28T07:11:41.676Z,99662.50
2022-09-28T07:14:12.333Z,99659.34
2022-09-28T07:17:10.113Z,99666.28
2022-09-28T07:19:28.714Z,99671.25
2022-09-28T07:22:03.989Z,99668.09
2022-09-28T07:24:31.262Z,99676.88
2022-09-28T07:26:57.677Z,99678.03
2022-09-28T07:29:24.009Z,99689.50
2022-09-28T07:31:53.474Z,99688.84
2022-09-28T07:34:23.460Z,99685.94
2022-09-28T07:36:50.226Z,99689.69
2022-09-28T07:39:16.810Z,99693.50
2022-09-28T07:41:44.229Z,99694.97
2022-09-28T07:44:10.687Z,99693.81
2022-09-28T07:46:37.190Z,99696.00
2022-09-28T07:49:08.417Z,99698.31
2022-09-28T07:51:37.905Z,99703.09
2022-09-28T07:54:05.821Z,99702.69
2022-09-28T07:56:33.888Z,99692.84
2022-09-28T07:59:00.309Z,99696.78
2022-09-28T08:03:56.079Z,99708.97
2022-09-28T08:06:23.185Z,99706.69
2022-09-28T08:08:50.386Z,99710.44
2022-09-28T08:11:18.773Z,99715.78
2022-09-28T08:13:46.479Z,99715.25
2022-09-28T08:16:13.459Z,99716.81
2022-09-28T08:18:40.072Z,99716.31
2022-09-28T08:21:25.784Z,99720.34
2022-09-28T08:23:53.068Z,99725.97
2022-09-28T08:26:19.905Z,99731.47
2022-09-28T08:28:47.940Z,99730.84
2022-09-28T08:31:14.540Z,99730.72
2022-09-28T08:33:42.383Z,99735.72
2022-09-28T08:36:10.205Z,99739.56
2022-09-28T08:38:36.709Z,99734.84
2022-09-28T08:41:24.548Z,99740.47
2022-09-28T08:44:00.608Z,99739.31
2022-09-28T08:46:36.393Z,99735.44
2022-09-28T08:49:26.290Z,99729.69
2022-09-28T08:52:24.487Z,99743.94
2022-09-28T08:55:04.388Z,99745.16
2022-09-28T08:57:37.861Z,99751.47
2022-09-28T09:00:09.640Z,99750.94
2022-09-28T09:02:39.776Z,99748.09
2022-09-28T09:05:14.910Z,99748.28
2022-09-28T09:07:44.809Z,99749.28
2022-09-28T09:10:57.857Z,99755.38
2022-09-28T09:13:43.018Z,99757.34
2022-09-28T09:16:34.534Z,99757.91
2022-09-28T09:19:26.129Z,99752.25
2022-09-28T09:22:03.176Z,99766.16
2022-09-28T09:24:48.644Z,99757.75
2022-09-28T09:27:15.010Z,99765.91
2022-09-28T09:30:20.446Z,99772.13
2022-09-28T09:32:57.777Z,99770.47
2022-09-28T09:35:52.428Z,99764.53
2022-09-28T09:38:44.387Z,99765.56
2022-09-28T09:41:26.590Z,99771.97
2022-09-28T09:43:58.977Z,99771.41
2022-09-28T09:46:35.500Z,99770.13
2022-09-28T09:49:08.266Z,99777.16
2022-09-28T09:51:59.841Z,99778.22
2022-09-28T09:54:34.247Z,99768.28
2022-09-28T09:57:17.976Z,99771.59
2022-09-28T09:59:48.227Z,99769.47
2022-09-28T10:02:22.308Z,99768.72
2022-09-28T10:04:52.804Z,99771.09
2022-09-28T10:07:25.298Z,99769.06
2022-09-28T10:09:58.278Z,99768.25
2022-09-28T10:12:25.687Z,99763.84
2022-09-28T10:14:53.106Z,99765.28
2022-09-28T10:17:26.629Z,99756.38
2022-09-28T10:19:56.060Z,99765.97
2022-09-28T10:22:25.271Z,99761.31
2022-09-28T10:24:57.675Z,99765.22
2022-09-28T10:27:28.292Z,99764.03
2022-09-28T10:30:00.213Z,99759.63
2022-09-28T10:32:36.747Z,99762.84
2022-09-28T10:35:15.001Z,99759.91
2022-09-28T10:38:04.887Z,99773.13
2022-09-28T10:40:46.450Z,99775.09
2022-09-28T10:43:25.329Z,99773.94
2022-09-28T10:46:07.012Z,99769.47
2022-09-28T10:48:49.381Z,99774.69
2022-09-28T10:51:17.279Z,99775.81
2022-09-28T10:54:02.575Z,99766.44
2022-09-28T10:56:35.948Z,99769.03
2022-09-28T10:59:22.367Z,99767.31
2022-09-28T11:02:04.658Z,99772.63
2022-09-28T11:04:40.655Z,99773.38
2022-09-28T11:07:18.465Z,99769.44
2022-09-28T11:09:50.476Z,99776.44
2022-09-28T11:12:23.999Z,99769.16
2022-09-28T11:14:58.063Z,99765.50
2022-09-28T11:17:27.231Z,99773.03
2022-09-28T11:19:55.525Z,99772.22
2022-09-28T11:22:41.756Z,99767.06
2022-09-28T11:25:17.365Z,99764.25
2022-09-28T11:27:53.136Z,99770.13
2022-09-28T11:30:24.635Z,99775.97
2022-09-28T11:32:54.050Z,99769.56
2022-09-28T11:35:35.698Z,99767.84
2022-09-28T11:38:14.987Z,99771.16
2022-09-28T11:41:05.642Z,99764.56
2022-09-28T11:43:54.158Z,99751.47
2022-09-28T11:47:12.006Z,99762.06
2022-09-28T11:49:48.332Z,99764.88
2022-09-28T11:52:36.300Z,99774.53
2022-09-28T11:55:31.912Z,99769.78
2022-09-28T11:58:27.867Z,99769.44
2022-09-28T12:01:08.811Z,99769.19
2022-09-28T12:03:50.845Z,99769.00
2022-09-28T12:06:31.147Z,99769.28
2022-09-28T12:09:09.253Z,99781.41
2022-09-28T12:11:43.831Z,99780.16
2022-09-28T12:14:19.246Z,99792.44
2022-09-28T12:17:05.649Z,99800.19
2022-09-28T12:19:42.529Z,99803.28
2022-09-28T12:22:22.151Z,99804.81
2022-09-28T12:24:52.643Z,99809.41
2022-09-28T12:27:30.201Z,99808.88
2022-09-28T12:30:14.202Z,99806.91
2022-09-28T12:32:50.426Z,99815.97
2022-09-28T12:35:57.910Z,99822.22
2022-09-28T12:39:08.762Z,99820.44
2022-09-28T12:41:59.104Z,99819.53
2022-09-28T12:44:43.617Z,99822.97
2022-09-28T12:47:32.112Z,99820.78
2022-09-28T12:53:54.486Z,99810.53
2022-09-28T12:56:43.696Z,99804.50
2022-09-28T12:59:25.715Z,99806.19
2022-09-28T13:02:20.172Z,99806.34
2022-09-28T13:04:49.958Z,99795.00
2022-09-28T13:07:20.365Z,99799.34
2022-09-28T13:09:59.203Z,99800.69
2022-09-28T13:12:34.861Z,99797.16
2022-09-28T13:15:08.641Z,99791.03
2022-09-28T13:18:00.332Z,99785.50
2022-09-28T13:20:39.934Z,99791.34
2022-09-28T13:23:16.415Z,99790.91
2022-09-28T13:25:50.981Z,99789.88
2022-09-28T13:28:29.786Z,99789.75
2022-09-28T13:33:38.722Z,99798.91
2022-09-28T13:36:33.200Z,99799.34
2022-09-28T13:39:00.867Z,99814.06
2022-09-28T13:41:43.624Z,99807.44
2022-09-28T13:44:13.278Z,99804.56
2022-09-28T13:46:52.805Z,99809.56
2022-09-28T13:49:40.056Z,99812.03
2022-09-28T13:52:32.028Z,99809.34
2022-09-28T13:55:28.864Z,99809.59
2022-09-28T13:58:06.934Z,99799.50
2022-09-28T14:00:58.595Z,99801.50
2022-09-28T14:03:42.795Z,99800.19
2022-09-28T14:06:22.805Z,99804.72
2022-09-28T14:09:23.815Z,99804.00
2022-09-28T14:11:58.254Z,99805.03
2022-09-28T14:14:26.016Z,99814.91
2022-09-28T14:17:18.867Z,99808.72
2022-09-28T14:19:51.598Z,99806.59
2022-09-28T14:22:36.511Z,99820.84
2022-09-28T14:25:17.085Z,99820.84
2022-09-28T14:28:00.156Z,99820.13
2022-09-28T14:30:48.291Z,99815.47
2022-09-28T14:33:20.474Z,99827.19
2022-09-28T14:36:01.961Z,99825.03
2022-09-28T14:39:02.454Z,99822.66
2022-09-28T14:41:34.464Z,99827.25
2022-09-28T14:44:08.559Z,99821.75
2022-09-28T14:46:45.719Z,99829.47
2022-09-28T14:49:19.377Z,99836.97
2022-09-28T14:51:48.464Z,99834.91
2022-09-28T14:54:19.790Z,99845.69
2022-09-28T14:56:52.376Z,99844.13
2022-09-28T14:59:24.764Z,99846.94
2022-09-28T15:02:00.830Z,99848.97
2022-09-28T15:04:30.541Z,99846.47
2022-09-28T15:07:00.147Z,99845.53
2022-09-28T15:09:32.300Z,99847.28
2022-09-28T15:12:16.344Z,99849.19
2022-09-28T15:14:51.387Z,99850.34
2022-09-28T15:17:22.006Z,99850.47
2022-09-28T15:19:54.239Z,99853.19
2022-09-28T15:22:21.064Z,99849.84
2022-09-28T15:25:01.351Z,99853.53
2022-09-28T15:27:36.420Z,99849.22
2022-09-28T15:30:20.276Z,99841.41
2022-09-28T15:32:46.700Z,99848.81
2022-09-28T15:35:20.402Z,99851.03
2022-09-28T15:37:51.840Z,99848.66
2022-09-28T15:40:28.436Z,99859.91
2022-09-28T15:42:59.096Z,99859.91
2022-09-28T15:45:37.901Z,99857.06
2022-09-28T15:48:33.207Z,99858.31
2022-09-28T15:51:06.111Z,99860.19
2022-09-28T15:53:33.424Z,99861.34
2022-09-28T15:56:05.552Z,99854.69
2022-09-28T15:58:32.185Z,99860.09
2022-09-28T16:01:39.202Z,99859.81
2022-09-28T16:04:43.240Z,99864.88
2022-09-28T16:07:12.393Z,99862.22
2022-09-28T16:10:01.887Z,99856.78
2022-09-28T16:12:40.673Z,99858.34
2022-09-28T16:15:20.379Z,99863.25
2022-09-28T16:18:06.892Z,99850.94
2022-09-28T16:20:36.881Z,99861.34
2022-09-28T16:23:19.110Z,99856.88
2022-09-28T16:25:53.810Z,99865.63
2022-09-28T16:28:51.961Z,99865.94
2022-09-28T16:31:18.347Z,99860.53
2022-09-28T16:33:53.644Z,99860.91
2022-09-28T16:36:22.409Z,99864.97
2022-09-28T16:38:49.367Z,99866.59
2022-09-28T16:41:19.549Z,99864.81
2022-09-28T16:43:46.561Z,99875.50
2022-09-28T16:46:17.397Z,99874.44
2022-09-28T16:48:49.071Z,99869.44
2022-09-28T16:51:20.757Z,99873.94
2022-09-28T16:54:06.611Z,99876.25
2022-09-28T16:56:35.150Z,99875.72
2022-09-28T16:59:04.919Z,99882.94
2022-09-28T17:01:31.623Z,99888.78
2022-09-28T17:03:58.114Z,99896.81
2022-09-28T17:06:27.764Z,99895.03
2022-09-28T17:08:58.613Z,99902.03
2022-09-28T17:11:25.352Z,99896.53
2022-09-28T17:13:52.283Z,99903.00
2022-09-28T17:16:36.701Z,99900.38
2022-09-28T17:19:18.621Z,99900.50
2022-09-28T17:21:45.653Z,99909.47
2022-09-28T17:24:12.116Z,99904.59
2022-09-28T17:26:39.232Z,99908.03
2022-09-28T17:29:08.678Z,99904.69
2022-09-28T17:31:35.064Z,99906.75
2022-09-28T17:34:01.628Z,99908.44
2022-09-28T17:36:29.082Z,99914.56
2022-09-28T17:38:56.782Z,99916.59
2022-09-28T17:41:23.145Z,99915.03
2022-09-28T17:43:49.702Z,99911.69
2022-09-28T17:46:33.446Z,99915.22
2022-09-28T17:49:02.960Z,99920.44
2022-09-28T17:51:32.249Z,99916.03
2022-09-28T17:54:00.809Z,99919.69
2022-09-28T17:56:31.944Z,99919.06
2022-09-28T17:59:01.289Z,99913.84
2022-09-28T18:01:33.737Z,99920.13
2022-09-28T18:04:02.178Z,99924.50
2022-09-28T18:06:34.817Z,99918.66
2022-09-28T18:09:04.920Z,99921.38
2022-09-28T18:11:32.667Z,99925.00
2022-09-28T18:14:00.495Z,99914.91
2022-09-28T18:16:29.868Z,99925.44
2022-09-28T18:18:58.097Z,99919.50
2022-09-28T18:21:24.593Z,99924.81
2022-09-28T18:23:51.147Z,99926.78
2022-09-28T18:26:19.515Z,99924.16
2022-09-28T18:28:46.058Z,99931.16
2022-09-28T18:31:15.003Z,99932.81
2022-09-28T18:33:41.591Z,99923.44
2022-09-28T18:36:36.408Z,99925.72
2022-09-28T18:39:06.434Z,99925.31
2022-09-28T18:41:33.252Z,99929.16
2022-09-28T18:44:17.620Z,99925.41
2022-09-28T18:46:58.751Z,99925.31
2022-09-28T18:49:30.645Z,99932.59
2022-09-28T18:52:05.455Z,99930.00
2022-09-28T18:54:33.206Z,99929.34
2022-09-28T18:57:10.047Z,99928.53
2022-09-28T18:59:39.292Z,99933.31
2022-09-28T19:02:12.843Z,99932.47
2022-09-28T19:10:07.616Z,99927.25
2022-09-28T19:12:34.123Z,99922.34
2022-09-28T19:15:00.628Z,99920.69
2022-09-28T19:17:27.319Z,99928.81
2022-09-28T19:19:53.905Z,99930.56
2022-09-28T19:22:20.550Z,99919.31
2022-09-28T19:24:47.023Z,99928.09
2022-09-28T19:27:13.758Z,99927.34
2022-09-28T19:29:40.237Z,99930.03
2022-09-28T19:32:06.782Z,99928.56
2022-09-28T19:34:33.218Z,99931.25
2022-09-28T19:37:03.902Z,99935.56
2022-09-28T19:39:31.006Z,99930.44
2022-09-28T19:41:57.828Z,99935.56
2022-09-28T19:44:27.010Z,99935.66
2022-09-28T19:47:08.268Z,99942.63
2022-09-28T19:49:37.212Z,99946.66
2022-09-28T19:52:15.949Z,99950.28
2022-09-28T19:54:56.774Z,99946.22
2022-09-28T19:57:26.106Z,99948.19
2022-09-28T19:59:55.792Z,99953.28
2022-09-28T20:02:28.163Z,99955.16
2022-09-28T20:04:57.605Z,99955.25
2022-09-28T20:07:24.299Z,99957.00
2022-09-28T20:09:53.639Z,99948.38
2022-09-28T20:12:20.182Z,99959.69
2022-09-28T20:14:50.144Z,99969.44
2022-09-28T20:17:20.354Z,99962.75
2022-09-28T20:19:48.781Z,99961.19
2022-09-28T20:22:18.644Z,99971.88
2022-09-28T20:24:48.131Z,99964.28
2022-09-28T20:27:15.168Z,99968.81
2022-09-28T20:29:44.922Z,99966.69
2022-09-28T20:32:13.767Z,99972.28
2022-09-28T20:34:40.803Z,99975.25
2022-09-28T20:37:07.860Z,99984.94
2022-09-28T20:39:40.355Z,99978.25
2022-09-28T20:42:09.721Z,99981.97
2022-09-28T20:44:36.184Z,99976.84
2022-09-28T20:47:02.708Z,99982.78
2022-09-28T20:49:29.764Z,99986.69
2022-09-28T20:51:56.144Z,99982.34
2022-09-28T20:54:25.680Z,99989.94
2022-09-28T20:56:52.239Z,99987.31
2022-09-28T20:59:24.574Z,99982.97
2022-09-28T21:01:54.954Z,99983.06
2022-09-28T21:04:21.728Z,99987.53
2022-09-28T21:06:48.587Z,99980.75
2022-09-28T21:09:14.973Z,99985.09
2022-09-28T21:11:41.797Z,99983.00
2022-09-28T21:14:10.364Z,99991.16
2022-09-28T21:16:37.612Z,99984.94
2022-09-28T21:19:04.273Z,99991.78
2022-09-28T21:21:31.288Z,99994.38
2022-09-28T21:23:58.910Z,99991.22
2022-09-28T21:26:28.045Z,99993.75
2022-09-28T21:29:03.784Z,100001.44
2022-09-28T21:31:36.862Z,100003.31
2022-09-28T21:34:04.887Z,99999.03
2022-09-28T21:36:31.955Z,100000.13
2022-09-28T21:38:58.848Z,100005.31
2022-09-28T21:41:25.772Z,100004.66
2022-09-28T21:43:52.942Z,100001.25
2022-09-28T21:46:19.992Z,100002.53
2022-09-28T21:48:46.513Z,100006.91
2022-09-28T21:51:14.751Z,100013.28
2022-09-28T21:53:41.319Z,100014.31
2022-09-28T21:56:10.717Z,100013.47
2022-09-28T21:58:37.719Z,100014.66
2022-09-28T22:01:09.086Z,100012.06
2022-09-28T22:03:37.108Z,100018.16
2022-09-28T22:06:04.956Z,100012.81
2022-09-28T22:08:31.870Z,100014.38
2022-09-28T22:11:02.549Z,100013.84
2022-09-28T22:13:30.347Z,100020.94
2022-09-28T22:16:00.096Z,100017.53
2022-09-28T22:18:28.122Z,100021.78
2022-09-28T22:21:22.390Z,100019.19
2022-09-28T22:23:49.772Z,100023.91
2022-09-28T22:26:25.609Z,100027.50
2022-09-28T22:28:57.973Z,100025.06
2022-09-28T22:31:27.243Z,100025.19
2022-09-28T22:33:54.155Z,100029.72
2022-09-28T22:36:21.017Z,100032.50
2022-09-28T22:38:49.030Z,100033.31
2022-09-28T22:41:18.747Z,100039.34
2022-09-28T22:43:45.228Z,100029.22
2022-09-28T22:46:15.114Z,100032.66
2022-09-28T22:48:44.542Z,100036.25
2022-09-28T22:51:11.059Z,100033.34
2022-09-28T22:53:37.949Z,100039.63
2022-09-28T22:56:06.029Z,100036.06
2022-09-28T22:58:33.731Z,100037.31
2022-09-28T23:01:10.925Z,100033.22
2022-09-28T23:03:40.102Z,100043.09
2022-09-28T23:06:08.210Z,100037.31
2022-09-28T23:08:35.374Z,100034.72
2022-09-28T23:11:02.400Z,100035.72
2022-09-28T23:13:31.034Z,100032.53
2022-09-28T23:15:59.230Z,100034.25
2022-09-28T23:18:29.031Z,100037.78
2022-09-28T23:20:57.085Z,100033.50
2022-09-28T23:23:23.797Z,100038.88
2022-09-28T23:25:51.471Z,100039.72
2022-09-28T23:28:19.923Z,100040.47
2022-09-28T23:30:47.243Z,100038.69
2022-09-28T23:33:18.965Z,100044.88
2022-09-28T23:35:45.432Z,100043.38
2022-09-28T23:38:13.610Z,100045.97
2022-09-28T23:40:41.826Z,100051.16
2022-09-28T23:43:08.563Z,100044.31
2022-09-28T23:45:35.032Z,100043.56
2022-09-28T23:48:01.987Z,100045.47
2022-09-28T23:50:28.645Z,100042.88
2022-09-28T23:52:55.131Z,100043.88
2022-09-28T23:55:21.541Z,100041.44
2022-09-28T23:57:47.998Z,100041.53
